createdAt,value
2023-11-11T00:00:43.223Z,33.42
2023-11-11T00:03:11.140Z,34.78
2023-11-11T00:05:38.759Z,35.35
2023-11-11T00:08:06.534Z,35.58
2023-11-11T00:10:34.970Z,34.05
2023-11-11T00:13:04.447Z,34.85
2023-11-11T00:15:35.069Z,34.80
2023-11-11T00:18:02.880Z,34.15
2023-11-11T00:20:30.547Z,33.50
2023-11-11T00:22:59.592Z,32.70
2023-11-11T00:25:27.216Z,33.45
2023-11-11T00:27:54.616Z,31.42
2023-11-11T00:30:23.251Z,32.83
2023-11-11T00:32:53.043Z,33.22
2023-11-11T00:35:21.885Z,35.25
2023-11-11T00:37:49.685Z,32.58
2023-11-11T00:40:17.288Z,34.13
2023-11-11T00:42:45.038Z,33.15
2023-11-11T00:45:14.745Z,32.55
2023-11-11T00:47:42.671Z,33.22
2023-11-11T00:50:10.900Z,32.55
2023-11-11T00:52:38.567Z,33.33
2023-11-11T00:55:08.842Z,33.63
2023-11-11T00:57:36.537Z,35.03
2023-11-11T01:00:05.211Z,34.50
2023-11-11T01:02:33.515Z,33.72
2023-11-11T01:05:01.009Z,35.38
2023-11-11T01:07:28.862Z,33.10
2023-11-11T01:09:56.282Z,32.22
2023-11-11T01:12:24.284Z,31.50
2023-11-11T01:14:51.879Z,32.28
2023-11-11T01:17:20.237Z,31.80
2023-11-11T01:19:48.118Z,30.95
2023-11-11T01:22:17.299Z,29.45
2023-11-11T01:24:45.118Z,30.92
2023-11-11T01:27:12.811Z,31.13
2023-11-11T01:29:43.346Z,33.10
2023-11-11T01:32:11.074Z,33.30
2023-11-11T01:34:38.570Z,33.28
2023-11-11T01:37:08.882Z,32.92
2023-11-11T01:39:36.973Z,33.28
2023-11-11T01:42:06.740Z,32.22
2023-11-11T01:44:34.339Z,30.90
2023-11-11T01:47:06.304Z,28.55
2023-11-11T01:49:34.747Z,24.63
2023-11-11T01:52:07.553Z,21.48
2023-11-11T01:54:39.225Z,20.63
2023-11-11T01:57:07.725Z,20.23
2023-11-11T01:59:37.041Z,19.27
2023-11-11T02:02:05.007Z,18.02
2023-11-11T02:04:33.064Z,16.00
2023-11-11T02:07:01.083Z,13.52
2023-11-11T02:09:28.940Z,13.00
2023-11-11T02:11:56.956Z,14.13
2023-11-11T02:14:25.149Z,12.50
2023-11-11T02:16:52.864Z,13.32
2023-11-11T02:19:20.421Z,11.90
2023-11-11T02:21:50.112Z,12.40
2023-11-11T02:24:19.704Z,12.77
2023-11-11T02:26:47.454Z,12.20
2023-11-11T02:29:15.130Z,13.30
2023-11-11T02:31:43.001Z,13.18
2023-11-11T02:34:10.361Z,12.60
2023-11-11T02:36:39.427Z,12.20
2023-11-11T02:39:07.665Z,12.70
2023-11-11T02:41:35.179Z,12.18
2023-11-11T02:44:04.153Z,13.00
2023-11-11T02:46:32.168Z,13.23
2023-11-11T02:48:59.660Z,13.95
2023-11-11T02:51:27.693Z,13.85
2023-11-11T02:53:55.449Z,14.25
2023-11-11T02:56:23.295Z,14.15
2023-11-11T02:58:50.852Z,15.05
2023-11-11T03:01:20.591Z,14.38
2023-11-11T03:03:48.364Z,14.98
2023-11-11T03:06:16.188Z,15.40
2023-11-11T03:08:44.422Z,15.68
2023-11-11T03:11:13.731Z,15.35
2023-11-11T03:13:41.908Z,16.60
2023-11-11T03:16:09.658Z,16.40
2023-11-11T03:18:37.566Z,17.08
2023-11-11T03:21:05.170Z,16.95
2023-11-11T03:23:32.809Z,16.80
2023-11-11T03:26:00.483Z,17.35
2023-11-11T03:28:28.312Z,16.20
2023-11-11T03:30:56.071Z,16.95
2023-11-11T03:33:23.792Z,17.10
2023-11-11T03:35:52.505Z,17.25
2023-11-11T03:38:23.181Z,16.35
2023-11-11T03:40:50.718Z,15.68
2023-11-11T03:43:18.703Z,15.05
2023-11-11T03:45:46.286Z,14.50
2023-11-11T03:48:15.169Z,15.38
2023-11-11T03:50:42.883Z,15.23
2023-11-11T03:53:10.948Z,14.63
2023-11-11T03:55:38.669Z,14.40
2023-11-11T03:58:06.271Z,13.73
2023-11-11T04:00:33.873Z,12.80
2023-11-11T04:03:01.807Z,12.15
2023-11-11T04:05:30.520Z,11.27
2023-11-11T04:07:57.931Z,10.77
2023-11-11T04:10:25.656Z,10.20
2023-11-11T04:12:53.542Z,10.27
2023-11-11T04:15:22.779Z,9.98
2023-11-11T04:17:50.449Z,10.48
2023-11-11T04:20:18.453Z,9.40
2023-11-11T04:22:46.371Z,9.77
2023-11-11T04:25:14.100Z,8.43
2023-11-11T04:27:46.128Z,9.00
2023-11-11T04:30:13.783Z,8.43
2023-11-11T04:32:42.181Z,8.57
2023-11-11T04:35:09.891Z,9.05
2023-11-11T04:37:37.557Z,8.90
2023-11-11T04:40:09.768Z,8.60
2023-11-11T04:42:37.530Z,8.18
2023-11-11T04:45:05.476Z,8.88
2023-11-11T04:47:32.964Z,9.15
2023-11-11T04:50:00.597Z,8.95
2023-11-11T04:52:28.778Z,9.25
2023-11-11T04:54:56.488Z,8.77
2023-11-11T04:57:24.317Z,9.85
2023-11-11T04:59:51.756Z,10.70
2023-11-11T05:02:19.294Z,10.68
2023-11-11T05:04:46.787Z,10.43
2023-11-11T05:07:14.242Z,10.52
2023-11-11T05:09:41.961Z,10.05
2023-11-11T05:12:10.182Z,10.60
2023-11-11T05:14:38.003Z,9.93
2023-11-11T05:17:08.991Z,9.70
2023-11-11T05:19:36.688Z,9.68
2023-11-11T05:22:04.565Z,9.32
2023-11-11T05:24:33.176Z,9.02
2023-11-11T05:27:00.816Z,8.40
2023-11-11T05:29:28.287Z,8.13
2023-11-11T05:31:56.024Z,7.93
2023-11-11T05:34:23.506Z,8.07
2023-11-11T05:36:52.086Z,7.82
2023-11-11T05:39:19.744Z,8.05
2023-11-11T05:41:47.403Z,8.32
2023-11-11T05:44:15.193Z,8.38
2023-11-11T05:46:42.883Z,7.85
2023-11-11T05:49:10.726Z,8.32
2023-11-11T05:51:38.459Z,7.95
2023-11-11T05:54:06.419Z,7.93
2023-11-11T05:56:34.086Z,7.95
2023-11-11T05:59:02.825Z,8.73
2023-11-11T06:01:30.517Z,9.40
2023-11-11T06:03:58.094Z,8.50
2023-11-11T06:06:25.982Z,8.85
2023-11-11T06:08:53.545Z,8.80
2023-11-11T06:11:22.545Z,8.95
2023-11-11T06:13:50.449Z,8.80
2023-11-11T06:16:18.227Z,8.73
2023-11-11T06:18:46.083Z,9.32
2023-11-11T06:21:13.731Z,9.73
2023-11-11T06:26:12.521Z,11.50
2023-11-11T06:28:40.999Z,10.02
2023-11-11T06:31:09.786Z,10.55
2023-11-11T06:33:37.876Z,9.82
2023-11-11T06:36:08.093Z,10.38
2023-11-11T06:38:35.761Z,9.90
2023-11-11T06:41:03.689Z,9.55
2023-11-11T06:43:31.598Z,9.70
2023-11-11T06:46:00.810Z,10.70
2023-11-11T06:48:28.978Z,9.77
2023-11-11T06:50:57.003Z,10.27
2023-11-11T06:53:24.878Z,9.98
2023-11-11T06:55:53.208Z,10.02
2023-11-11T06:58:22.018Z,10.13
2023-11-11T07:00:50.086Z,10.07
2023-11-11T07:03:17.879Z,10.05
2023-11-11T07:05:46.061Z,10.55
2023-11-11T07:08:14.380Z,9.85
2023-11-11T07:10:45.143Z,9.25
2023-11-11T07:13:14.552Z,9.70
2023-11-11T07:15:42.867Z,10.57
2023-11-11T07:18:11.563Z,9.82
2023-11-11T07:20:41.158Z,10.32
2023-11-11T07:23:08.918Z,10.35
2023-11-11T07:25:37.310Z,10.57
2023-11-11T07:28:05.765Z,10.43
2023-11-11T07:30:33.549Z,10.32
2023-11-11T07:33:02.534Z,9.73
2023-11-11T07:35:30.773Z,9.52
2023-11-11T07:37:58.523Z,10.00
2023-11-11T07:40:26.922Z,10.20
2023-11-11T07:42:57.326Z,9.50
2023-11-11T07:45:26.044Z,9.18
2023-11-11T07:47:54.385Z,10.40
2023-11-11T07:50:23.448Z,9.77
2023-11-11T07:52:51.349Z,10.25
2023-11-11T07:55:18.889Z,11.35
2023-11-11T08:00:19.882Z,12.10
2023-11-11T08:02:50.695Z,12.38
2023-11-11T08:05:18.676Z,10.95
2023-11-11T08:07:46.306Z,9.80
2023-11-11T08:10:14.340Z,10.25
2023-11-11T08:12:42.111Z,9.02
2023-11-11T08:15:10.154Z,9.23
2023-11-11T08:17:38.698Z,9.82
2023-11-11T08:20:06.722Z,9.65
2023-11-11T08:22:34.526Z,9.25
2023-11-11T08:25:02.056Z,9.07
2023-11-11T08:27:29.769Z,9.48
2023-11-11T08:29:57.478Z,9.18
2023-11-11T08:32:25.871Z,9.88
2023-11-11T08:34:54.195Z,9.50
2023-11-11T08:37:21.973Z,9.05
2023-11-11T08:39:50.849Z,9.80
2023-11-11T08:42:20.023Z,9.70
2023-11-11T08:44:50.585Z,10.05
2023-11-11T08:47:18.291Z,10.25
2023-11-11T08:49:46.089Z,10.90
2023-11-11T08:52:13.575Z,10.57
2023-11-11T08:54:41.042Z,10.63
2023-11-11T08:57:08.887Z,11.95
2023-11-11T08:59:36.430Z,13.30
2023-11-11T09:02:04.914Z,13.88
2023-11-11T09:04:32.534Z,14.30
2023-11-11T09:07:01.095Z,16.10
2023-11-11T09:09:30.099Z,16.05
2023-11-11T09:11:58.221Z,18.77
2023-11-11T09:14:25.992Z,21.85
2023-11-11T09:16:53.622Z,21.15
2023-11-11T09:19:21.283Z,22.52
2023-11-11T09:21:49.178Z,23.17
2023-11-11T09:24:16.690Z,24.33
2023-11-11T09:29:16.812Z,26.20
2023-11-11T09:31:44.884Z,26.88
2023-11-11T09:34:13.321Z,26.38
2023-11-11T09:36:41.146Z,27.58
2023-11-11T09:39:10.058Z,28.50
2023-11-11T09:41:37.782Z,28.63
2023-11-11T09:44:05.724Z,27.58
2023-11-11T09:46:37.550Z,28.52
2023-11-11T09:49:05.748Z,29.92
2023-11-11T09:51:33.992Z,31.42
2023-11-11T09:54:03.423Z,31.77
2023-11-11T09:59:03.113Z,32.58
2023-11-11T10:01:32.550Z,35.80
2023-11-11T10:04:00.254Z,36.35
2023-11-11T10:06:27.846Z,37.65
2023-11-11T10:08:56.283Z,37.72
2023-11-11T10:11:24.250Z,38.17
2023-11-11T10:13:54.910Z,39.20
2023-11-11T10:16:29.141Z,39.13
2023-11-11T10:18:59.569Z,37.17
2023-11-11T10:21:27.799Z,36.72
2023-11-11T10:23:59.457Z,35.72
2023-11-11T10:26:27.182Z,34.25
2023-11-11T10:28:54.882Z,34.08
2023-11-11T10:31:25.455Z,35.50
2023-11-11T10:33:53.857Z,34.08
2023-11-11T10:36:24.522Z,33.92
2023-11-11T10:38:55.735Z,33.22
2023-11-11T10:41:24.830Z,31.73
2023-11-11T10:43:53.349Z,33.45
2023-11-11T10:46:21.014Z,32.90
2023-11-11T10:48:48.606Z,32.35
2023-11-11T10:51:17.235Z,32.13
2023-11-11T10:53:45.598Z,31.25
2023-11-11T10:56:14.191Z,31.65
2023-11-11T10:58:43.204Z,30.92
2023-11-11T11:01:11.681Z,32.03
2023-11-11T11:03:40.008Z,32.35
2023-11-11T11:06:14.039Z,30.92
2023-11-11T11:09:00.550Z,31.38
2023-11-11T11:11:31.314Z,31.75
2023-11-11T11:14:01.582Z,33.05
2023-11-11T11:16:31.504Z,33.55
2023-11-11T11:18:59.859Z,31.55
2023-11-11T11:21:29.426Z,30.98
2023-11-11T11:23:57.530Z,31.58
2023-11-11T11:26:32.785Z,31.75
2023-11-11T11:29:16.967Z,30.38
2023-11-11T11:32:03.555Z,30.83
2023-11-11T11:34:31.607Z,30.85
2023-11-11T11:36:59.206Z,30.50
2023-11-11T11:39:30.666Z,31.60
2023-11-11T11:42:12.613Z,30.80
2023-11-11T11:44:40.396Z,33.00
2023-11-11T11:47:09.357Z,32.22
2023-11-11T11:49:37.316Z,32.53
2023-11-11T11:52:05.816Z,34.45
2023-11-11T11:54:33.451Z,33.55
2023-11-11T11:57:06.900Z,34.47
2023-11-11T11:59:35.672Z,33.20
2023-11-11T12:02:03.386Z,33.78
2023-11-11T12:04:31.251Z,33.95
2023-11-11T12:06:58.789Z,34.20
2023-11-11T12:09:27.972Z,33.83
2023-11-11T12:11:55.738Z,32.97
2023-11-11T12:14:23.532Z,33.53
2023-11-11T12:16:54.149Z,36.15
2023-11-11T12:19:23.019Z,33.63
2023-11-11T12:21:52.116Z,34.42
2023-11-11T12:24:26.567Z,33.53
2023-11-11T12:27:01.072Z,33.08
2023-11-11T12:29:30.389Z,35.97
2023-11-11T12:31:58.655Z,36.13
2023-11-11T12:34:32.503Z,36.33
2023-11-11T12:37:00.792Z,35.20
2023-11-11T12:39:30.166Z,37.30
2023-11-11T12:41:59.027Z,36.70
2023-11-11T12:44:27.799Z,37.40
2023-11-11T12:46:58.689Z,36.17
2023-11-11T12:49:29.001Z,34.50
2023-11-11T12:52:00.902Z,37.22
2023-11-11T12:54:33.943Z,36.35
2023-11-11T12:57:02.250Z,35.72
2023-11-11T12:59:29.834Z,36.65
2023-11-11T13:02:07.670Z,38.40
2023-11-11T13:04:35.664Z,37.33
2023-11-11T13:07:18.092Z,36.40
2023-11-11T13:09:47.432Z,37.15
2023-11-11T13:12:16.181Z,36.28
2023-11-11T13:14:45.369Z,38.85
2023-11-11T13:17:14.221Z,38.90
2023-11-11T13:19:42.002Z,38.90
2023-11-11T13:22:10.953Z,38.13
2023-11-11T13:24:41.730Z,36.97
2023-11-11T13:27:09.418Z,36.78
2023-11-11T13:29:37.466Z,37.35
2023-11-11T13:32:05.607Z,38.13
2023-11-11T13:34:34.998Z,40.15
2023-11-11T13:37:12.866Z,40.40
2023-11-11T13:39:52.787Z,40.65
2023-11-11T13:42:23.009Z,40.38
2023-11-11T13:44:51.595Z,41.67
2023-11-11T13:47:21.581Z,40.50
2023-11-11T13:49:49.840Z,42.72
2023-11-11T13:52:17.815Z,42.33
2023-11-11T13:54:45.625Z,42.75
2023-11-11T13:57:14.981Z,44.22
2023-11-11T13:59:42.689Z,43.90
2023-11-11T14:02:12.987Z,45.13
2023-11-11T14:04:47.090Z,43.47
2023-11-11T14:07:15.104Z,44.00
2023-11-11T14:09:42.740Z,44.90
2023-11-11T14:12:11.135Z,46.42
2023-11-11T14:14:40.749Z,45.30
2023-11-11T14:17:08.925Z,46.63
2023-11-11T14:19:36.703Z,46.08
2023-11-11T14:22:04.525Z,47.08
2023-11-11T14:24:32.183Z,48.38
2023-11-11T14:26:59.735Z,48.70
2023-11-11T14:29:27.498Z,49.88
2023-11-11T14:31:55.735Z,50.53
2023-11-11T14:34:23.691Z,49.97
2023-11-11T14:36:51.970Z,50.35
2023-11-11T14:39:20.214Z,50.13
2023-11-11T14:41:49.301Z,50.45
2023-11-11T14:44:16.880Z,51.45
2023-11-11T14:46:44.702Z,54.92
2023-11-11T14:49:12.547Z,54.40
2023-11-11T14:51:40.579Z,54.45
2023-11-11T14:54:10.736Z,53.22
2023-11-11T14:56:38.962Z,55.40
2023-11-11T14:59:08.113Z,54.33
2023-11-11T15:01:35.815Z,55.80
2023-11-11T15:04:04.782Z,55.97
2023-11-11T15:06:33.770Z,55.60
2023-11-11T15:09:01.893Z,54.88
2023-11-11T15:11:29.699Z,56.30
2023-11-11T15:14:03.795Z,59.10
2023-11-11T15:16:33.182Z,56.65
2023-11-11T15:19:02.752Z,56.85
2023-11-11T15:21:30.688Z,58.78
2023-11-11T15:23:58.948Z,58.63
2023-11-11T15:26:27.224Z,57.05
2023-11-11T15:28:54.793Z,59.97
2023-11-11T15:31:26.269Z,60.35
2023-11-11T15:33:56.444Z,59.80
2023-11-11T15:36:27.332Z,62.47
2023-11-11T15:38:56.661Z,61.17
2023-11-11T15:41:24.785Z,62.13
2023-11-11T15:43:52.552Z,62.75
2023-11-11T15:46:20.758Z,61.90
2023-11-11T15:48:48.276Z,62.90
2023-11-11T15:51:22.797Z,63.42
2023-11-11T15:53:53.932Z,60.92
2023-11-11T15:56:21.916Z,59.90
2023-11-11T15:58:49.989Z,62.80
2023-11-11T16:01:19.471Z,62.22
2023-11-11T16:03:50.837Z,61.70
2023-11-11T16:06:18.701Z,61.13
2023-11-11T16:08:47.000Z,61.20
2023-11-11T16:11:14.554Z,64.03
2023-11-11T16:13:42.079Z,62.35
2023-11-11T16:16:09.578Z,62.80
2023-11-11T16:18:38.341Z,60.67
2023-11-11T16:21:06.364Z,61.95
2023-11-11T16:23:33.987Z,62.20
2023-11-11T16:26:02.345Z,61.33
2023-11-11T16:28:29.992Z,61.75
2023-11-11T16:30:57.526Z,61.45
2023-11-11T16:33:25.259Z,60.75
2023-11-11T16:35:54.870Z,60.22
2023-11-11T16:38:22.448Z,61.63
2023-11-11T16:40:50.156Z,59.72
2023-11-11T16:43:17.643Z,59.67
2023-11-11T16:45:45.601Z,58.60
2023-11-11T16:48:14.011Z,59.25
2023-11-11T16:50:45.362Z,58.10
2023-11-11T16:53:13.419Z,58.00
2023-11-11T16:55:41.185Z,57.00
2023-11-11T16:58:09.674Z,56.38
2023-11-11T17:00:37.271Z,56.75
2023-11-11T17:03:05.600Z,57.40
2023-11-11T17:05:33.508Z,58.55
2023-11-11T17:08:01.326Z,56.85
2023-11-11T17:10:29.054Z,56.75
2023-11-11T17:12:59.705Z,57.67
2023-11-11T17:15:27.860Z,57.85
2023-11-11T17:17:55.622Z,58.72
2023-11-11T17:20:23.099Z,58.78
2023-11-11T17:22:51.290Z,58.20
2023-11-11T17:25:19.298Z,58.35
2023-11-11T17:27:46.694Z,58.45
2023-11-11T17:30:14.360Z,58.63
2023-11-11T17:32:42.058Z,68.10
2023-11-11T17:35:09.902Z,57.90
2023-11-11T17:37:39.052Z,47.40
2023-11-11T17:40:11.577Z,46.47
2023-11-11T17:42:40.197Z,45.38
2023-11-11T17:45:10.369Z,44.17
2023-11-11T17:47:38.249Z,46.70
2023-11-11T17:50:06.140Z,46.47
2023-11-11T17:52:33.884Z,48.25
2023-11-11T17:55:01.928Z,48.50
2023-11-11T17:57:30.065Z,47.70
2023-11-11T17:59:57.746Z,48.58
2023-11-11T18:02:28.971Z,47.03
2023-11-11T18:04:56.951Z,40.40
2023-11-11T18:07:24.503Z,39.60
2023-11-11T18:09:53.445Z,34.60
2023-11-11T18:12:21.400Z,30.13
2023-11-11T18:14:49.012Z,30.33
2023-11-11T18:17:16.529Z,26.05
2023-11-11T18:19:44.675Z,22.80
2023-11-11T18:22:12.365Z,19.40
2023-11-11T18:24:41.124Z,18.33
2023-11-11T18:27:09.081Z,16.70
2023-11-11T18:29:40.317Z,15.93
2023-11-11T18:32:08.971Z,24.58
2023-11-11T18:34:36.776Z,18.95
2023-11-11T18:37:06.025Z,22.42
2023-11-11T18:39:34.575Z,24.77
2023-11-11T18:42:02.713Z,28.00
2023-11-11T18:44:31.064Z,27.90
2023-11-11T18:46:58.983Z,29.02
2023-11-11T18:49:27.090Z,31.25
2023-11-11T18:51:54.872Z,31.90
2023-11-11T18:54:22.385Z,32.42
2023-11-11T18:56:50.632Z,32.85
2023-11-11T18:59:20.581Z,35.83
2023-11-11T19:01:49.073Z,35.78
2023-11-11T19:04:17.285Z,36.17
2023-11-11T19:06:44.768Z,35.42
2023-11-11T19:09:12.647Z,38.92
2023-11-11T19:11:45.147Z,42.83
2023-11-11T19:14:14.064Z,35.10
2023-11-11T19:16:42.536Z,29.05
2023-11-11T19:19:13.568Z,35.85
2023-11-11T19:21:41.152Z,22.77
2023-11-11T19:24:14.893Z,18.95
2023-11-11T19:26:43.157Z,17.42
2023-11-11T19:29:10.663Z,16.45
2023-11-11T19:31:38.597Z,15.60
2023-11-11T19:34:06.405Z,16.10
2023-11-11T19:36:34.001Z,16.10
2023-11-11T19:39:01.624Z,14.95
2023-11-11T19:41:29.227Z,14.45
2023-11-11T19:43:56.777Z,14.18
2023-11-11T19:46:26.620Z,12.93
2023-11-11T19:48:55.197Z,12.90
2023-11-11T19:51:27.183Z,13.20
2023-11-11T19:54:04.551Z,12.77
2023-11-11T19:56:32.126Z,12.05
2023-11-11T19:59:00.317Z,12.73
2023-11-11T20:01:27.964Z,12.70
2023-11-11T20:03:55.683Z,12.52
2023-11-11T20:06:23.925Z,12.63
2023-11-11T20:08:51.928Z,12.50
2023-11-11T20:11:24.199Z,12.65
2023-11-11T20:13:51.953Z,13.02
2023-11-11T20:16:22.921Z,14.32
2023-11-11T20:18:50.457Z,12.52
2023-11-11T20:21:18.484Z,11.23
2023-11-11T20:23:45.986Z,10.38
2023-11-11T20:26:14.214Z,11.50
2023-11-11T20:28:42.440Z,12.27
2023-11-11T20:31:10.655Z,11.27
2023-11-11T20:33:38.341Z,11.50
2023-11-11T20:36:07.723Z,12.15
2023-11-11T20:38:35.460Z,12.60
2023-11-11T20:41:03.160Z,12.40
2023-11-11T20:43:34.748Z,12.30
2023-11-11T20:46:02.504Z,12.23
2023-11-11T20:48:30.025Z,12.65
2023-11-11T20:50:57.735Z,12.95
2023-11-11T20:53:25.410Z,13.50
2023-11-11T20:55:53.157Z,13.93
2023-11-11T20:58:20.790Z,14.45
2023-11-11T21:00:48.547Z,14.30
2023-11-11T21:03:16.556Z,15.48
2023-11-11T21:05:44.299Z,15.48
2023-11-11T21:08:12.033Z,17.38
2023-11-11T21:10:39.915Z,18.00
2023-11-11T21:13:07.644Z,17.02
2023-11-11T21:15:35.501Z,17.55
2023-11-11T21:18:05.300Z,18.48
2023-11-11T21:20:33.063Z,19.38
2023-11-11T21:23:00.686Z,19.88
2023-11-11T21:25:28.427Z,20.38
2023-11-11T21:27:56.035Z,21.75
2023-11-11T21:30:23.891Z,20.95
2023-11-11T21:32:52.386Z,22.05
2023-11-11T21:35:20.462Z,22.77
2023-11-11T21:37:48.661Z,23.73
2023-11-11T21:40:16.304Z,22.92
2023-11-11T21:42:44.355Z,23.20
2023-11-11T21:45:12.374Z,22.65
2023-11-11T21:47:39.982Z,23.58
2023-11-11T21:50:08.210Z,24.20
2023-11-11T21:52:38.250Z,23.67
2023-11-11T21:55:08.076Z,24.38
2023-11-11T21:57:38.354Z,24.38
2023-11-11T22:00:10.519Z,25.05
2023-11-11T22:02:40.873Z,24.52
2023-11-11T22:05:11.333Z,26.15
2023-11-11T22:07:39.872Z,24.85
2023-11-11T22:10:09.453Z,25.13
2023-11-11T22:12:36.939Z,26.67
2023-11-11T22:15:04.760Z,25.70
2023-11-11T22:17:32.817Z,26.17
2023-11-11T22:20:01.228Z,27.27
2023-11-11T22:22:28.850Z,25.73
2023-11-11T22:24:56.863Z,26.02
2023-11-11T22:27:25.627Z,27.50
2023-11-11T22:29:54.046Z,27.07
2023-11-11T22:32:22.226Z,28.02
2023-11-11T22:34:49.986Z,29.13
2023-11-11T22:37:19.042Z,29.15
2023-11-11T22:39:46.948Z,30.58
2023-11-11T22:42:14.724Z,29.58
2023-11-11T22:44:42.646Z,30.73
2023-11-11T22:47:10.878Z,29.42
2023-11-11T22:49:41.366Z,30.73
2023-11-11T22:52:09.206Z,31.55
2023-11-11T22:54:36.636Z,32.40
2023-11-11T22:57:04.731Z,32.90
2023-11-11T22:59:32.392Z,33.65
2023-11-11T23:02:00.171Z,33.63
2023-11-11T23:04:28.445Z,35.90
2023-11-11T23:06:57.151Z,37.93
2023-11-11T23:09:24.688Z,40.45
2023-11-11T23:11:52.183Z,42.47
2023-11-11T23:14:20.031Z,41.63
2023-11-11T23:16:47.718Z,43.75
2023-11-11T23:19:15.483Z,44.75
2023-11-11T23:21:43.129Z,46.63
2023-11-11T23:24:11.120Z,49.08
2023-11-11T23:26:38.687Z,49.67
2023-11-11T23:29:06.929Z,50.83
2023-11-11T23:31:34.823Z,53.22
2023-11-11T23:34:02.865Z,54.27
2023-11-11T23:36:30.407Z,54.15
2023-11-11T23:38:58.354Z,54.72
2023-11-11T23:41:26.193Z,54.63
2023-11-11T23:43:53.839Z,53.40
2023-11-11T23:46:21.395Z,54.75
2023-11-11T23:48:50.282Z,54.75
2023-11-11T23:51:18.014Z,56.42
2023-11-11T23:53:45.800Z,56.22
2023-11-11T23:56:13.314Z,56.47
2023-11-11T23:58:41.203Z,57.80
